Time;durP1;ratioP1;P1;durP2;ratioP2;P2;SDS_P1;SDS_P2;PMS_P1;PMS_P2;Temp;Humidity;BMP_temperature;BMP_pressure;BME280_temperature;BME280_humidity;BME280_pressure;Samples;Min_cycle;Max_cycle;Signal;HPM_P1;HPM_P2
2022/01/11 00:01:41;;;;;;;1.63;1.10;;;;;;;6.22;68.33;93897.75;5074517;28;20225;-76
2022/01/11 00:04:08;;;;;;;2.07;1.30;;;;;;;6.17;67.66;93901.88;5077327;28;20428;-77
2022/01/11 00:06:40;;;;;;;1.10;1.00;;;;;;;6.16;67.33;93905.47;5069065;28;20435;-76
2022/01/11 00:09:18;;;;;;;0.90;0.90;;;;;;;6.20;67.99;93912.72;5068695;28;20994;-76
2022/01/11 00:11:44;;;;;;;1.20;1.10;;;;;;;5.71;68.72;93907.34;5077604;28;20427;-76
2022/01/11 00:14:09;;;;;;;0.87;0.87;;;;;;;6.08;67.75;93913.38;5048543;28;20421;-77
2022/01/11 00:16:35;;;;;;;1.00;0.90;;;;;;;6.04;67.68;93913.75;5048328;28;20420;-76
2022/01/11 00:19:05;;;;;;;1.03;1.03;;;;;;;5.94;68.27;93920.19;5067813;28;20201;-76
2022/01/11 00:21:31;;;;;;;1.47;1.17;;;;;;;5.30;69.84;93926.03;5056033;28;20190;-75
2022/01/11 00:26:40;;;;;;;1.23;1.13;;;;;;;5.96;68.21;93919.06;5086581;28;20173;-76
2022/01/11 00:29:06;;;;;;;1.40;0.87;;;;;;;6.24;67.49;93926.09;5053666;28;20433;-76
2022/01/11 00:31:31;;;;;;;0.90;0.90;;;;;;;6.43;66.73;93928.09;5073877;28;20228;-75
2022/01/11 00:33:57;;;;;;;1.10;1.00;;;;;;;6.19;67.00;93921.47;5068611;28;20204;-76
2022/01/11 00:36:29;;;;;;;0.93;0.83;;;;;;;6.04;67.01;93925.94;5054641;28;20208;-75
2022/01/11 00:38:55;;;;;;;1.57;1.07;;;;;;;6.30;66.05;93924.56;5068490;28;20188;-75
2022/01/11 00:41:20;;;;;;;1.13;1.03;;;;;;;6.38;66.31;93927.06;5068079;28;20464;-76
2022/01/11 00:43:46;;;;;;;0.90;0.90;;;;;;;6.11;67.35;93932.00;5068354;28;20652;-76
2022/01/11 00:46:12;;;;;;;1.10;0.80;;;;;;;5.97;67.94;93941.44;5067654;28;20243;-76
2022/01/11 00:48:39;;;;;;;0.93;0.87;;;;;;;5.62;69.01;93943.00;5086284;28;20639;-76
2022/01/11 00:51:05;;;;;;;0.83;0.83;;;;;;;6.08;67.34;93939.34;5086061;28;20431;-76
2022/01/11 00:53:31;;;;;;;1.30;1.07;;;;;;;6.04;67.03;93949.31;5067765;28;20527;-76
2022/01/11 00:55:56;;;;;;;0.97;0.97;;;;;;;6.37;66.62;93951.41;5067823;28;20439;-75
2022/01/11 00:58:22;;;;;;;1.17;1.00;;;;;;;6.35;66.83;93961.19;5085904;28;20197;-76
2022/01/11 01:00:48;;;;;;;0.90;0.90;;;;;;;6.48;66.16;93952.72;5085186;28;20614;-76
2022/01/11 01:03:14;;;;;;;0.80;0.80;;;;;;;6.54;64.85;93960.56;5067658;28;20182;-76
2022/01/11 01:05:40;;;;;;;1.37;1.10;;;;;;;6.10;66.01;93965.94;5084590;28;20518;-75
2022/01/11 01:08:06;;;;;;;1.30;1.20;;;;;;;5.70;66.64;93960.25;5072755;28;20205;-76
2022/01/11 01:10:40;;;;;;;2.33;1.13;;;;;;;5.86;66.09;93966.06;5085653;28;20424;-76
2022/01/11 01:13:13;;;;;;;1.33;1.00;;;;;;;5.78;66.38;93962.75;5067048;28;20189;-76
2022/01/11 01:15:39;;;;;;;1.23;1.10;;;;;;;5.70;66.29;93971.44;5062077;28;20439;-76
2022/01/11 01:18:06;;;;;;;1.27;1.10;;;;;;;5.72;66.93;93968.69;5085388;28;20427;-76
2022/01/11 01:20:33;;;;;;;1.43;0.90;;;;;;;5.66;66.50;93973.59;5085224;28;20838;-76
2022/01/11 01:22:59;;;;;;;0.90;0.90;;;;;;;5.16;67.76;93977.72;5085242;28;20890;-76
2022/01/11 01:25:24;;;;;;;1.30;1.03;;;;;;;5.83;65.62;93982.00;5072517;28;20448;-76
2022/01/11 01:27:52;;;;;;;0.97;0.90;;;;;;;5.76;66.09;93985.50;5076812;28;20192;-76
2022/01/11 01:30:18;;;;;;;1.83;1.00;;;;;;;5.81;65.14;93988.34;5072963;28;20206;-76
2022/01/11 01:32:44;;;;;;;0.80;0.80;;;;;;;5.13;66.44;93988.44;5084031;28;20424;-76
2022/01/11 01:35:12;;;;;;;0.70;0.70;;;;;;;4.76;66.84;93995.25;5077895;28;20205;-76
2022/01/11 01:37:37;;;;;;;0.83;0.83;;;;;;;5.21;65.36;93998.72;5085234;28;20420;-75
2022/01/11 01:40:04;;;;;;;0.70;0.70;;;;;;;5.09;66.65;94000.94;5055944;28;20468;-76
2022/01/11 01:42:31;;;;;;;0.90;0.90;;;;;;;5.76;63.73;94004.47;5065004;28;20281;-76
2022/01/11 01:45:01;;;;;;;0.80;0.80;;;;;;;5.68;63.86;94000.16;5064993;28;20428;-76
2022/01/11 01:47:26;;;;;;;0.70;0.70;;;;;;;5.19;64.58;93994.72;5065467;28;20777;-75
2022/01/11 01:49:52;;;;;;;0.77;0.77;;;;;;;5.67;63.54;93998.56;5074434;28;20537;-76
2022/01/11 01:52:18;;;;;;;0.60;0.60;;;;;;;5.32;64.50;94004.47;5053125;28;20190;-76
2022/01/11 01:54:44;;;;;;;0.93;0.87;;;;;;;5.32;64.57;94004.47;5088103;28;20169;-76
2022/01/11 01:57:10;;;;;;;0.80;0.80;;;;;;;5.16;65.22;94003.66;5070403;28;20435;-76
2022/01/11 01:59:35;;;;;;;0.70;0.70;;;;;;;5.85;63.45;94005.19;5085061;28;20232;-76
2022/01/11 02:02:01;;;;;;;1.13;1.00;;;;;;;5.41;65.11;94008.59;5085114;28;20270;-76
2022/01/11 02:04:27;;;;;;;0.80;0.70;;;;;;;5.70;64.14;94006.97;5071284;28;20591;-74
2022/01/11 02:06:53;;;;;;;0.80;0.80;;;;;;;5.14;66.30;94008.22;5075065;28;20539;-75
2022/01/11 02:09:19;;;;;;;0.70;0.70;;;;;;;5.57;64.28;94013.59;5084056;28;20415;-76
2022/01/11 02:11:47;;;;;;;0.77;0.77;;;;;;;5.40;64.40;94018.16;5085390;28;20271;-76
2022/01/11 02:14:13;;;;;;;0.90;0.83;;;;;;;5.52;64.59;94015.94;5085390;28;20189;-76
2022/01/11 02:16:38;;;;;;;1.10;1.00;;;;;;;5.31;65.16;94023.59;5085201;28;20423;-76
2022/01/11 02:19:04;;;;;;;0.77;0.77;;;;;;;5.86;63.75;94017.97;5085206;28;20446;-77
2022/01/11 02:21:30;;;;;;;0.83;0.83;;;;;;;5.73;63.62;94023.00;5085136;28;20273;-76
2022/01/11 02:23:57;;;;;;;0.80;0.80;;;;;;;5.60;63.91;94028.03;5083846;28;20416;-76
2022/01/11 02:26:23;;;;;;;0.70;0.70;;;;;;;5.87;62.95;94024.78;5072919;28;20201;-76
2022/01/11 02:28:50;;;;;;;0.90;0.80;;;;;;;6.10;62.45;94028.28;5064629;28;20423;-76
2022/01/11 02:31:15;;;;;;;0.70;0.70;;;;;;;6.05;62.62;94021.84;5082918;28;20428;-76
2022/01/11 02:33:45;;;;;;;0.80;0.80;;;;;;;5.96;62.83;94033.31;5085772;28;20455;-76
2022/01/11 02:36:20;;;;;;;0.83;0.80;;;;;;;6.23;61.92;94023.22;5088153;28;20197;-77
2022/01/11 02:38:52;;;;;;;1.10;0.80;;;;;;;6.40;61.70;94029.81;5075168;28;20480;-76
2022/01/11 02:41:18;;;;;;;1.27;0.90;;;;;;;6.14;62.35;94026.91;5050107;28;20444;-75
2022/01/11 02:43:48;;;;;;;1.07;1.00;;;;;;;6.17;62.25;94029.97;5063001;28;20461;-76
2022/01/11 02:46:16;;;;;;;0.90;0.90;;;;;;;6.00;62.90;94039.75;5074392;28;20190;-75
2022/01/11 02:48:41;;;;;;;0.93;0.93;;;;;;;6.35;62.38;94044.34;5088602;28;20403;-76
2022/01/11 02:51:08;;;;;;;1.00;1.00;;;;;;;6.13;62.80;94033.91;5088546;28;20435;-75
2022/01/11 02:54:00;;;;;;;1.00;1.00;;;;;;;6.59;61.76;94040.59;5088436;28;20182;-77
2022/01/11 02:56:26;;;;;;;0.90;0.87;;;;;;;6.37;62.53;94050.16;5088084;28;20495;-76
2022/01/11 02:58:52;;;;;;;0.83;0.83;;;;;;;5.77;63.18;94049.41;5069524;28;20769;-76
2022/01/11 03:01:18;;;;;;;0.90;0.90;;;;;;;5.34;64.68;94052.59;5081717;28;20487;-76
2022/01/11 03:03:44;;;;;;;1.10;1.00;;;;;;;5.88;63.74;94056.75;5068184;28;20220;-76
2022/01/11 03:06:09;;;;;;;1.43;1.33;;;;;;;5.55;64.52;94054.50;5067393;28;20186;-76
2022/01/11 03:08:42;;;;;;;1.53;1.00;;;;;;;5.72;63.20;94057.72;5050174;28;20214;-77
2022/01/11 03:11:08;;;;;;;1.00;0.90;;;;;;;5.64;63.44;94056.03;5086318;28;20170;-75
2022/01/11 03:13:35;;;;;;;0.80;0.80;;;;;;;5.12;64.30;94069.78;5077064;28;20508;-75
2022/01/11 03:16:02;;;;;;;1.00;0.90;;;;;;;5.75;63.59;94066.94;5071811;28;20428;-77
2022/01/11 03:18:28;;;;;;;0.90;0.90;;;;;;;5.55;63.80;94056.28;5077716;28;20426;-76
2022/01/11 03:20:54;;;;;;;0.93;0.80;;;;;;;5.81;62.74;94063.66;5052478;28;20471;-77
2022/01/11 03:23:20;;;;;;;1.07;0.97;;;;;;;5.79;62.53;94069.00;5088267;28;20423;-76
2022/01/11 03:25:47;;;;;;;0.80;0.80;;;;;;;5.72;62.67;94068.09;5087834;28;20189;-76
2022/01/11 03:28:13;;;;;;;0.90;0.90;;;;;;;6.06;61.20;94070.19;5088175;28;20487;-76
2022/01/11 03:30:38;;;;;;;1.27;1.17;;;;;;;5.03;63.70;94074.25;5087623;28;20432;-76
2022/01/11 03:33:08;;;;;;;0.93;0.90;;;;;;;5.47;63.13;94070.16;5087628;28;20560;-76
2022/01/11 03:35:35;;;;;;;0.90;0.90;;;;;;;6.11;61.41;94067.06;5087505;28;20186;-76
2022/01/11 03:38:03;;;;;;;0.90;0.90;;;;;;;5.95;60.39;94073.22;5087173;28;20432;-76
2022/01/11 03:40:29;;;;;;;0.70;0.70;;;;;;;5.14;62.40;94080.00;5056589;28;20457;-77
2022/01/11 03:42:55;;;;;;;0.73;0.70;;;;;;;5.32;62.19;94071.91;5081101;28;20429;-76
2022/01/11 03:45:21;;;;;;;0.90;0.90;;;;;;;5.62;61.72;94078.75;5067231;28;20182;-77
2022/01/11 03:47:48;;;;;;;0.83;0.83;;;;;;;5.78;60.99;94075.16;5067304;28;20425;-77
2022/01/11 03:50:13;;;;;;;1.00;1.00;;;;;;;5.88;60.73;94082.72;5066956;28;20419;-76
2022/01/11 03:52:39;;;;;;;0.90;0.90;;;;;;;5.46;60.83;94084.91;5070020;28;20456;-76
2022/01/11 03:55:12;;;;;;;0.70;0.70;;;;;;;5.86;60.98;94084.66;5068871;28;20281;-76
2022/01/11 03:57:38;;;;;;;0.80;0.80;;;;;;;5.76;60.08;94084.94;5083972;28;20481;-76
2022/01/11 04:00:09;;;;;;;0.80;0.80;;;;;;;5.78;60.82;94087.34;5068483;28;20480;-76
2022/01/11 04:02:35;;;;;;;2.37;1.00;;;;;;;5.93;60.01;94097.75;5068762;28;20428;-76
2022/01/11 04:05:01;;;;;;;0.80;0.80;;;;;;;5.77;60.30;94090.94;5086792;28;20420;-74
2022/01/11 04:07:27;;;;;;;2.43;0.90;;;;;;;5.95;60.11;94096.59;5086881;28;20238;-76
2022/01/11 04:09:55;;;;;;;0.93;0.93;;;;;;;6.13;59.71;94096.25;5079025;28;20405;-76
2022/01/11 04:12:22;;;;;;;0.90;0.90;;;;;;;5.20;61.09;94106.06;5066707;28;20433;-76
2022/01/11 04:14:47;;;;;;;1.50;0.97;;;;;;;5.02;62.01;94106.34;5066701;28;20409;-75
2022/01/11 04:17:14;;;;;;;1.10;1.10;;;;;;;5.02;62.31;94113.31;5084708;28;20447;-76
2022/01/11 04:19:39;;;;;;;0.80;0.80;;;;;;;5.37;61.52;94114.50;5073685;28;20279;-77
2022/01/11 04:22:05;;;;;;;0.80;0.80;;;;;;;5.42;61.13;94119.16;5078277;28;20459;-75
2022/01/11 04:24:31;;;;;;;0.80;0.80;;;;;;;5.90;60.34;94111.91;5081761;28;20186;-76
2022/01/11 04:26:57;;;;;;;1.90;1.00;;;;;;;5.06;62.05;94130.94;5066212;28;20190;-75
2022/01/11 04:29:22;;;;;;;0.80;0.80;;;;;;;5.48;61.59;94134.03;5082919;28;20415;-76
2022/01/11 04:31:48;;;;;;;0.70;0.70;;;;;;;6.01;59.69;94134.88;5086281;28;20193;-75
2022/01/11 04:34:13;;;;;;;0.80;0.80;;;;;;;6.41;58.28;94137.97;5086327;28;20173;-74
2022/01/11 04:36:39;;;;;;;1.17;1.17;;;;;;;5.86;59.03;94149.56;5086287;28;20266;-76
2022/01/11 04:39:07;;;;;;;1.17;1.00;;;;;;;5.68;59.85;94145.53;5086199;28;20193;-77
2022/01/11 04:41:33;;;;;;;1.13;1.00;;;;;;;5.93;58.54;94142.69;5086110;28;20235;-76
2022/01/11 04:43:58;;;;;;;0.90;0.90;;;;;;;5.60;58.89;94148.19;5072284;28;20955;-75
2022/01/11 04:46:25;;;;;;;1.03;0.87;;;;;;;5.33;60.00;94151.34;5065898;28;20186;-75
2022/01/11 04:48:51;;;;;;;0.80;0.80;;;;;;;5.43;59.88;94157.13;5065506;28;20186;-75
2022/01/11 04:51:17;;;;;;;1.00;1.00;;;;;;;5.57;59.43;94152.94;5047788;28;20436;-74
2022/01/11 04:53:42;;;;;;;1.30;1.10;;;;;;;5.72;59.31;94164.16;5056728;28;20187;-75
2022/01/11 04:56:08;;;;;;;1.40;1.30;;;;;;;5.76;59.14;94167.19;5047724;28;20199;-75
2022/01/11 04:58:34;;;;;;;1.27;1.17;;;;;;;5.01;59.58;94164.38;5058322;28;20185;-75
2022/01/11 05:01:00;;;;;;;1.03;0.87;;;;;;;5.53;58.60;94173.22;5067208;28;20692;-75
2022/01/11 05:03:26;;;;;;;2.87;1.10;;;;;;;5.35;59.33;94170.13;5067797;28;20408;-75
2022/01/11 05:05:51;;;;;;;1.43;1.10;;;;;;;5.35;59.24;94180.50;5084309;28;20783;-75
2022/01/11 05:08:17;;;;;;;1.70;1.37;;;;;;;5.70;58.58;94180.88;5065757;28;20205;-75
2022/01/11 05:10:43;;;;;;;1.00;1.00;;;;;;;5.61;58.43;94173.16;5065638;28;20246;-75
2022/01/11 05:13:16;;;;;;;1.40;1.30;;;;;;;5.81;58.25;94180.47;5065820;28;20174;-75
2022/01/11 05:15:42;;;;;;;1.50;1.40;;;;;;;5.69;57.97;94182.66;5065658;28;20170;-76
2022/01/11 05:18:08;;;;;;;1.77;1.20;;;;;;;4.38;61.26;94180.88;5054963;28;20447;-75
2022/01/11 05:20:35;;;;;;;1.30;1.20;;;;;;;5.02;58.85;94185.91;5057830;28;20464;-76
2022/01/11 05:23:01;;;;;;;1.30;1.20;;;;;;;5.14;58.97;94188.91;5059557;28;20451;-76
2022/01/11 05:25:27;;;;;;;1.10;1.00;;;;;;;5.06;59.33;94195.75;5047420;28;20409;-76
2022/01/11 05:27:53;;;;;;;1.73;1.63;;;;;;;5.40;58.44;94196.38;5065318;28;20421;-76
2022/01/11 05:30:19;;;;;;;1.73;1.63;;;;;;;5.51;58.15;94202.94;5080932;28;20182;-75
2022/01/11 05:32:44;;;;;;;1.50;1.03;;;;;;;5.58;58.05;94201.28;5085631;28;20498;-75
2022/01/11 05:35:12;;;;;;;1.50;1.33;;;;;;;5.63;57.14;94202.38;5082193;28;20443;-76
2022/01/11 05:37:38;;;;;;;1.07;1.07;;;;;;;5.59;57.44;94198.47;5072994;28;20186;-74
2022/01/11 05:40:06;;;;;;;1.73;1.07;;;;;;;5.04;58.31;94202.09;5071460;28;20489;-75
2022/01/11 05:42:32;;;;;;;1.67;1.20;;;;;;;5.31;57.67;94210.38;5067434;28;20436;-75
2022/01/11 05:44:57;;;;;;;1.40;1.30;;;;;;;5.40;56.30;94211.94;5073449;28;20417;-76
2022/01/11 05:47:23;;;;;;;1.40;1.13;;;;;;;4.77;58.00;94211.97;5069833;28;20201;-77
2022/01/11 05:49:49;;;;;;;1.20;1.10;;;;;;;5.30;55.62;94221.75;5077811;28;20178;-75
2022/01/11 05:52:14;;;;;;;1.00;0.90;;;;;;;5.09;56.73;94218.78;5084772;28;20435;-74
2022/01/11 05:54:40;;;;;;;1.17;1.07;;;;;;;5.18;56.92;94222.13;5085166;28;20182;-75
2022/01/11 05:57:06;;;;;;;0.80;0.80;;;;;;;5.82;54.81;94221.00;5084728;28;20189;-74
2022/01/11 05:59:31;;;;;;;1.03;1.03;;;;;;;5.82;55.14;94214.03;5073580;28;20423;-74
2022/01/11 06:01:57;;;;;;;1.00;1.00;;;;;;;5.78;56.15;94217.16;5067447;28;20186;-74
2022/01/11 06:04:24;;;;;;;0.70;0.70;;;;;;;4.84;56.72;94231.06;5089092;28;20189;-75
2022/01/11 06:06:50;;;;;;;1.57;1.47;;;;;;;5.02;57.45;94235.19;5065506;28;20288;-76
2022/01/11 06:09:15;;;;;;;1.40;1.30;;;;;;;5.09;57.46;94238.72;5090843;28;20420;-75
2022/01/11 06:11:41;;;;;;;1.60;1.30;;;;;;;5.20;57.22;94251.31;5087817;28;20424;-75
2022/01/11 06:14:06;;;;;;;1.20;1.20;;;;;;;5.62;56.36;94255.25;5088474;28;20185;-76
2022/01/11 06:16:32;;;;;;;1.10;1.10;;;;;;;4.98;57.38;94258.03;5088959;28;20540;-75
2022/01/11 06:18:57;;;;;;;1.10;1.00;;;;;;;5.35;55.91;94253.16;5088746;28;20177;-76
2022/01/11 06:21:23;;;;;;;2.33;1.20;;;;;;;5.68;56.32;94253.75;5088547;28;20217;-75
2022/01/11 06:23:49;;;;;;;2.03;1.50;;;;;;;5.95;55.28;94255.00;5070224;28;20178;-76
2022/01/11 06:26:15;;;;;;;1.07;1.00;;;;;;;6.17;54.20;94265.56;5088504;28;20189;-75
2022/01/11 06:28:41;;;;;;;2.40;1.77;;;;;;;5.81;54.41;94264.34;5086164;28;20174;-75
2022/01/11 06:31:07;;;;;;;0.90;0.90;;;;;;;5.23;55.34;94270.88;5050475;28;20916;-76
2022/01/11 06:33:33;;;;;;;1.23;1.23;;;;;;;5.66;54.76;94269.47;5062277;28;20199;-75
2022/01/11 06:35:59;;;;;;;1.63;1.27;;;;;;;5.76;54.52;94276.22;5082028;28;20426;-75
2022/01/11 06:38:24;;;;;;;1.00;1.00;;;;;;;5.56;54.75;94271.50;5074758;28;20327;-75
2022/01/11 06:40:50;;;;;;;2.17;1.20;;;;;;;5.64;55.38;94273.25;5087795;28;20253;-75
2022/01/11 06:43:15;;;;;;;1.07;0.93;;;;;;;5.58;55.05;94289.50;5074051;28;20235;-75
2022/01/11 06:45:40;;;;;;;1.40;1.30;;;;;;;5.75;54.30;94279.78;5076293;28;20186;-75
2022/01/11 06:48:06;;;;;;;1.30;1.20;;;;;;;5.30;55.46;94286.59;5086013;28;20276;-75
2022/01/11 06:50:32;;;;;;;1.90;1.70;;;;;;;5.10;54.75;94284.41;5087308;28;20178;-75
2022/01/11 06:52:59;;;;;;;1.37;1.23;;;;;;;4.82;55.34;94287.44;5085007;28;20437;-74
2022/01/11 06:55:24;;;;;;;1.90;1.73;;;;;;;5.82;53.45;94284.16;5066656;28;20181;-76
2022/01/11 06:57:50;;;;;;;1.83;1.50;;;;;;;5.57;54.60;94287.88;5067738;28;20454;-76
2022/01/11 07:00:17;;;;;;;2.30;1.90;;;;;;;5.84;54.59;94299.53;5059786;28;20221;-75
2022/01/11 07:02:43;;;;;;;3.90;1.33;;;;;;;5.97;53.45;94297.19;5068617;28;20185;-75
2022/01/11 07:05:09;;;;;;;1.83;1.57;;;;;;;5.67;54.09;94298.84;5076262;28;20408;-76
2022/01/11 07:07:35;;;;;;;3.60;2.30;;;;;;;5.59;54.68;94291.91;5073360;28;20455;-75
2022/01/11 07:10:00;;;;;;;2.50;1.50;;;;;;;5.31;54.49;94314.13;5087285;28;20556;-76
2022/01/11 07:12:26;;;;;;;2.37;1.83;;;;;;;5.44;54.32;94315.22;5073472;28;20640;-75
2022/01/11 07:14:51;;;;;;;3.07;2.17;;;;;;;5.58;54.08;94308.47;5065967;28;20189;-76
2022/01/11 07:17:17;;;;;;;2.67;1.93;;;;;;;5.40;54.47;94315.72;5074195;28;20194;-76
2022/01/11 07:19:43;;;;;;;1.33;1.23;;;;;;;5.14;55.02;94319.41;5077345;28;20209;-76
2022/01/11 07:22:09;;;;;;;1.50;1.40;;;;;;;5.50;54.37;94328.47;5087376;28;20193;-77
2022/01/11 07:24:35;;;;;;;1.77;1.63;;;;;;;4.84;56.05;94326.97;5087132;28;20189;-76
2022/01/11 07:27:00;;;;;;;1.40;1.30;;;;;;;4.89;55.85;94332.47;5087007;28;20430;-76
2022/01/11 07:29:26;;;;;;;1.10;0.90;;;;;;;4.73;55.43;94342.88;5087000;28;20423;-76
2022/01/11 07:31:51;;;;;;;1.23;1.23;;;;;;;4.89;56.08;94348.03;5087612;28;20190;-76
2022/01/11 07:34:17;;;;;;;2.13;1.67;;;;;;;4.65;55.16;94350.69;5086589;28;20193;-75
2022/01/11 07:36:44;;;;;;;1.30;1.20;;;;;;;4.83;55.99;94351.25;5086188;28;20214;-76
2022/01/11 07:39:12;;;;;;;1.23;1.13;;;;;;;4.91;54.61;94355.63;5068622;28;20443;-75
2022/01/11 07:41:38;;;;;;;1.10;1.00;;;;;;;4.66;55.27;94358.25;5087209;28;20475;-76
2022/01/11 07:44:04;;;;;;;1.40;1.30;;;;;;;4.99;55.14;94357.38;5083006;28;20434;-77
2022/01/11 07:46:30;;;;;;;1.60;1.50;;;;;;;4.77;56.27;94357.13;5063646;28;20452;-77
2022/01/11 07:48:57;;;;;;;1.50;1.40;;;;;;;4.66;56.43;94358.25;5064462;28;20417;-75
2022/01/11 07:51:22;;;;;;;1.43;1.33;;;;;;;4.37;56.75;94355.41;5080901;28;20424;-76
2022/01/11 07:53:49;;;;;;;1.33;1.23;;;;;;;4.77;56.37;94349.34;5073869;28;20416;-76
2022/01/11 07:56:15;;;;;;;1.27;1.10;;;;;;;5.21;55.54;94361.84;5084487;28;20188;-77
2022/01/11 07:58:40;;;;;;;1.60;1.50;;;;;;;4.47;57.18;94361.22;5073519;28;20429;-77
2022/01/11 08:01:05;;;;;;;1.43;1.33;;;;;;;4.94;56.44;94375.22;5068535;28;20232;-76
2022/01/11 08:03:31;;;;;;;3.30;1.30;;;;;;;4.37;58.04;94373.53;5072823;28;20207;-76
2022/01/11 08:05:56;;;;;;;1.57;1.47;;;;;;;4.32;58.33;94386.97;5073159;28;20190;-77
2022/01/11 08:08:22;;;;;;;1.30;1.20;;;;;;;4.33;58.14;94383.41;5080744;28;20182;-77
2022/01/11 08:10:47;;;;;;;1.30;1.20;;;;;;;4.35;57.84;94384.06;5083353;28;20178;-76
2022/01/11 08:13:13;;;;;;;1.53;1.43;;;;;;;4.24;57.55;94381.78;5072699;28;20182;-77
2022/01/11 08:15:38;;;;;;;1.30;1.20;;;;;;;4.39;58.49;94392.31;5086380;28;20200;-77
2022/01/11 08:18:05;;;;;;;8.63;1.70;;;;;;;4.38;57.96;94386.34;5084435;28;20194;-77
2022/01/11 08:20:31;;;;;;;1.50;1.40;;;;;;;4.44;58.36;94390.84;5082250;28;20232;-76
2022/01/11 08:22:57;;;;;;;1.67;1.57;;;;;;;5.03;56.39;94394.97;5086592;28;20428;-76
2022/01/11 08:25:24;;;;;;;1.57;1.40;;;;;;;4.94;55.68;94396.78;5085272;28;20193;-76
2022/01/11 08:27:50;;;;;;;1.70;1.53;;;;;;;4.61;57.66;94402.03;5086700;28;20232;-77
2022/01/11 08:30:16;;;;;;;1.73;1.63;;;;;;;4.84;56.82;94404.75;5080194;28;20417;-77
2022/01/11 08:32:41;;;;;;;1.87;1.40;;;;;;;4.81;57.27;94407.66;5075360;28;20500;-77
2022/01/11 08:35:07;;;;;;;1.10;1.10;;;;;;;4.45;58.17;94410.59;5086337;28;20790;-76
2022/01/11 08:37:33;;;;;;;1.27;1.17;;;;;;;4.70;57.65;94423.53;5068182;28;20194;-76
2022/01/11 08:39:58;;;;;;;1.63;1.40;;;;;;;4.71;57.66;94416.59;5081620;28;20463;-76
2022/01/11 08:42:25;;;;;;;2.03;1.57;;;;;;;4.66;58.06;94411.88;5086151;28;20280;-75
2022/01/11 08:44:50;;;;;;;2.20;1.77;;;;;;;4.80;57.97;94416.41;5078101;28;20285;-75
2022/01/11 08:47:17;;;;;;;1.50;1.40;;;;;;;4.64;57.27;94421.59;5078882;28;20432;-75
2022/01/11 08:49:43;;;;;;;2.60;1.57;;;;;;;5.08;56.37;94424.63;5074917;28;20225;-76
2022/01/11 08:52:10;;;;;;;1.97;1.87;;;;;;;4.59;58.59;94431.63;5085772;28;20428;-76
2022/01/11 08:54:35;;;;;;;1.60;1.50;;;;;;;4.35;59.67;94430.69;5079999;28;20435;-76
2022/01/11 08:57:01;;;;;;;1.70;1.53;;;;;;;4.07;60.14;94437.94;5079698;28;20428;-76
2022/01/11 08:59:27;;;;;;;1.93;1.83;;;;;;;4.36;59.89;94439.25;5081905;28;20201;-76
2022/01/11 09:01:58;;;;;;;2.00;1.90;;;;;;;4.57;58.75;94443.94;5078089;28;20591;-76
2022/01/11 09:04:24;;;;;;;2.07;1.97;;;;;;;4.36;59.02;94445.22;5078858;28;20436;-75
2022/01/11 09:06:51;;;;;;;3.23;1.80;;;;;;;4.63;58.62;94448.47;5077061;28;20433;-76
2022/01/11 09:09:18;;;;;;;1.70;1.60;;;;;;;4.76;57.93;94450.59;5076496;28;20417;-75
2022/01/11 09:11:45;;;;;;;2.80;1.90;;;;;;;4.15;60.30;94453.47;5075897;28;20459;-76
2022/01/11 09:14:12;;;;;;;2.20;2.00;;;;;;;4.18;58.31;94447.97;5078987;28;20454;-76
2022/01/11 09:16:38;;;;;;;1.27;1.17;;;;;;;4.28;58.25;94451.22;5067263;28;20985;-76
2022/01/11 09:19:05;;;;;;;1.30;1.20;;;;;;;4.32;57.34;94449.13;5073564;28;20461;-76
2022/01/11 09:21:31;;;;;;;1.50;1.30;;;;;;;4.31;58.52;94452.69;5076281;28;20467;-77
2022/01/11 09:23:57;;;;;;;2.17;1.70;;;;;;;4.42;57.90;94449.78;5079444;28;20440;-75
2022/01/11 09:26:23;;;;;;;2.40;1.60;;;;;;;4.47;57.86;94467.44;5083143;28;20455;-76
2022/01/11 09:28:49;;;;;;;2.93;1.30;;;;;;;4.01;57.73;94465.25;5078061;28;20423;-76
2022/01/11 09:31:14;;;;;;;3.03;1.90;;;;;;;4.42;57.68;94470.53;5083512;28;20212;-76
2022/01/11 09:33:40;;;;;;;1.70;1.60;;;;;;;4.43;57.05;94456.59;5072792;28;20311;-77
2022/01/11 09:36:05;;;;;;;1.10;1.10;;;;;;;3.92;57.56;94458.44;5085393;28;20190;-77
2022/01/11 09:38:31;;;;;;;1.70;1.60;;;;;;;3.78;57.79;94461.66;5085401;28;20257;-78
2022/01/11 09:40:58;;;;;;;2.47;2.27;;;;;;;4.05;57.71;94460.59;5084936;28;20228;-76
2022/01/11 09:43:27;;;;;;;2.33;1.10;;;;;;;3.62;58.67;94462.38;5056580;28;20182;-76
2022/01/11 09:45:53;;;;;;;1.20;1.10;;;;;;;3.57;59.20;94460.28;5084380;28;20436;-76
2022/01/11 09:48:21;;;;;;;2.00;1.40;;;;;;;3.90;57.45;94462.97;5084365;28;20174;-76
2022/01/11 09:50:46;;;;;;;3.33;2.25;;;;;;;3.65;57.97;94473.25;5067700;28;20443;-75
2022/01/11 09:53:12;;;;;;;2.87;2.17;;;;;;;3.98;57.45;94470.75;5052939;28;20189;-77
2022/01/11 09:55:38;;;;;;;2.70;2.10;;;;;;;3.73;57.50;94472.47;5081950;28;20193;-76
2022/01/11 09:58:05;;;;;;;3.17;1.77;;;;;;;4.40;56.69;94475.06;5080281;28;20927;-75
2022/01/11 10:00:31;;;;;;;1.60;1.43;;;;;;;4.14;56.98;94471.78;5083949;28;20221;-76
2022/01/11 10:02:56;;;;;;;1.70;1.60;;;;;;;4.17;57.42;94476.63;5084919;28;20451;-76
2022/01/11 10:05:23;;;;;;;2.53;1.80;;;;;;;4.10;57.01;94472.09;5084706;28;20530;-75
2022/01/11 10:07:49;;;;;;;1.70;1.60;;;;;;;3.92;57.05;94479.94;5084365;28;20197;-77
2022/01/11 10:10:20;;;;;;;2.40;1.73;;;;;;;3.52;58.63;94489.19;5061884;28;20416;-77
2022/01/11 10:12:51;;;;;;;1.47;1.37;;;;;;;3.88;57.11;94483.81;5064395;28;20244;-77
2022/01/11 10:15:32;;;;;;;3.90;2.27;;;;;;;4.33;56.60;94488.81;5079438;28;20451;-77
2022/01/11 10:17:57;;;;;;;1.93;1.73;;;;;;;4.40;56.30;94482.81;5065015;28;20477;-75
2022/01/11 10:20:25;;;;;;;3.47;2.70;;;;;;;4.86;55.32;94483.16;5081180;28;20472;-78
2022/01/11 10:23:00;;;;;;;2.77;2.50;;;;;;;4.56;55.23;94483.81;5085094;28;20215;-78
2022/01/11 10:25:27;;;;;;;2.57;2.13;;;;;;;4.69;55.66;94478.94;5084626;28;20456;-76
2022/01/11 10:28:02;;;;;;;2.80;2.37;;;;;;;5.28;54.88;94489.91;5066830;28;20992;-77
2022/01/11 10:30:29;;;;;;;2.27;1.80;;;;;;;4.76;54.95;94494.66;5083600;28;20416;-77
2022/01/11 10:32:57;;;;;;;1.87;1.60;;;;;;;4.74;55.32;94486.22;5066846;28;21151;-78
2022/01/11 10:35:27;;;;;;;1.80;1.70;;;;;;;4.66;55.10;94492.22;5085610;28;20841;-77
2022/01/11 10:37:55;;;;;;;1.50;1.40;;;;;;;4.73;53.85;94493.19;5065015;28;20438;-77
2022/01/11 10:40:25;;;;;;;2.37;1.90;;;;;;;4.98;54.54;94494.00;5081057;28;20491;-77
2022/01/11 10:42:56;;;;;;;1.83;1.60;;;;;;;4.75;55.46;94491.25;5066572;28;20515;-78
2022/01/11 10:45:23;;;;;;;3.27;2.00;;;;;;;4.33;56.04;94497.38;5081065;28;20420;-77
2022/01/11 10:47:58;;;;;;;2.03;1.93;;;;;;;4.58;56.39;94497.41;5067621;28;20532;-78
2022/01/11 10:50:28;;;;;;;2.80;2.53;;;;;;;4.57;56.64;94493.19;5070192;28;20419;-77
2022/01/11 10:53:00;;;;;;;1.57;1.47;;;;;;;4.74;55.22;94494.81;5070341;28;20436;-77
2022/01/11 10:55:29;;;;;;;1.30;1.20;;;;;;;4.06;56.12;94506.19;5049736;28;20430;-77
2022/01/11 10:57:58;;;;;;;1.97;1.60;;;;;;;3.45;57.23;94495.13;5064571;28;20198;-75
2022/01/11 11:00:25;;;;;;;2.13;1.93;;;;;;;3.69;57.42;94497.03;5076507;28;20482;-76
2022/01/11 11:03:01;;;;;;;2.30;1.67;;;;;;;3.82;56.76;94499.19;5070043;28;20453;-78
2022/01/11 11:05:31;;;;;;;1.90;1.80;;;;;;;3.35;58.02;94494.44;5067920;28;20416;-76
2022/01/11 11:08:07;;;;;;;2.73;1.97;;;;;;;4.36;55.61;94489.28;5070070;28;20490;-76
2022/01/11 11:10:57;;;;;;;2.13;1.92;;;;;;;4.41;55.80;94483.63;5089462;28;20411;-76
2022/01/11 11:13:35;;;;;;;2.15;2.00;;;;;;;3.26;56.46;94483.22;5069226;28;20194;-76
2022/01/11 11:16:26;;;;;;;2.00;1.60;;;;;;;3.53;56.80;94484.84;5069342;28;20190;-77
2022/01/11 11:18:56;;;;;;;2.13;1.97;;;;;;;3.75;56.07;94480.88;5063106;28;20436;-77
2022/01/11 11:21:32;;;;;;;2.33;2.23;;;;;;;4.04;55.08;94472.72;5087119;28;20476;-77
2022/01/11 11:24:01;;;;;;;1.20;1.10;;;;;;;3.47;55.14;94473.34;5058522;28;20493;-77
2022/01/11 11:26:32;;;;;;;1.70;1.60;;;;;;;3.61;55.60;94482.28;5068136;28;20471;-77
2022/01/11 11:28:58;;;;;;;3.13;2.60;;;;;;;3.78;55.32;94482.34;5068113;28;20183;-77
2022/01/11 11:31:25;;;;;;;4.17;1.87;;;;;;;4.24;54.24;94483.59;5062970;28;20521;-77
2022/01/11 11:33:51;;;;;;;2.30;1.97;;;;;;;4.06;54.31;94486.31;5067928;28;20182;-77
2022/01/11 11:36:17;;;;;;;2.63;2.10;;;;;;;3.68;54.64;94495.41;5068450;28;20419;-77
2022/01/11 11:38:48;;;;;;;3.33;3.03;;;;;;;4.17;54.02;94495.53;5068383;28;20420;-78
2022/01/11 11:41:15;;;;;;;2.22;2.03;;;;;;;4.20;54.59;94495.25;5058979;28;20453;-77
2022/01/11 11:43:40;;;;;;;2.28;2.00;;;;;;;4.27;54.77;94503.19;5072273;28;20246;-77